Flight Briefing for CPX81

Departure Arrival
Kingsford Smith International Airport (YSSY)
Click to view FAA NOTAMS
Daniel K Inouye International Airport (PHNL)
Click to view FAA NOTAMS
Departure Time Arrival Time
N/A N/A
Aircraft Distance
B747-400BCF 4417nm
Departure METAR Arrival METAR
YSSY 221200Z 29006KT 9999 FEW014 SCT180 BKN210 21/18 Q1016 NOSIG PHNL 221153Z 05007KT 10SM FEW025 23/16 A3009 RMK AO2 SLP187 T02330161 10239 20228 58016
Suggested Route





View recent IFR Routes data
Notes



Charts and Procedures

Charts for YSSY
No chart available
Charts for PHNL
No chart available

Windy.com Weather Map